Time,TemperatureF,DewpointF,PressureIn,WindDirection,WindDirectionDegrees,WindSpeedMPH,WindSpeedGustMPH,Humidity,HourlyPrecipIn,Conditions,Clouds,dailyrainin,SoftwareType,DateUTC
2013-05-23 00:01:00,76.8,75.9,29.87,SE,132,6.9,6.9,97,0.00,CLR,,0.00,WeatherDisplay:10.37,2013-05-23 05:01:00,
2013-05-23 00:06:00,76.8,75.9,29.87,SE,131,10.4,10.4,97,0.00,CLR,,0.00,WeatherDisplay:10.37,2013-05-23 05:06:00,
2013-05-23 00:11:00,76.9,76.0,29.86,SSE,154,5.8,5.8,97,0.00,CLR,,0.00,WeatherDisplay:10.37,2013-05-23 05:11:00,
2013-05-23 00:16:00,76.9,76.0,29.86,SE,125,9.2,9.2,97,0.00,CLR,,0.00,WeatherDisplay:10.37,2013-05-23 05:16:00,
2013-05-23 00:21:00,76.8,75.9,29.86,SSE,154,9.2,9.2,97,0.00,CLR,,0.00,WeatherDisplay:10.37,2013-05-23 05:21:00,
2013-05-23 00:26:00,76.8,75.9,29.86,ESE,119,5.8,5.9,97,0.00,CLR,,0.00,WeatherDisplay:10.37,2013-05-23 05:26:00,
2013-05-23 00:31:00,76.8,75.9,29.86,East,94,5.8,5.8,97,0.00,CLR,,0.00,WeatherDisplay:10.37,2013-05-23 05:31:00,
2013-05-23 00:36:00,76.8,75.9,29.86,SSE,147,5.8,5.8,97,0.00,CLR,,0.00,WeatherDisplay:10.37,2013-05-23 05:36:00,
2013-05-23 00:41:00,76.8,75.9,29.86,SE,136,9.2,9.2,97,0.00,CLR,,0.00,WeatherDisplay:10.37,2013-05-23 05:41:00,
2013-05-23 00:46:00,76.8,75.9,29.86,ESE,111,2.3,2.3,97,0.00,CLR,,0.00,WeatherDisplay:10.37,2013-05-23 05:46:00,
2013-05-23 00:51:00,76.8,75.9,29.86,ESE,121,9.2,9.2,97,0.00,CLR,,0.00,WeatherDisplay:10.37,2013-05-23 05:51:00,
2013-05-23 00:56:00,76.7,75.8,29.85,ESE,117,10.4,10.4,97,0.00,CLR,,0.00,WeatherDisplay:10.37,2013-05-23 05:56:00,
2013-05-23 01:01:00,76.6,76.0,29.85,SE,137,7.4,7.4,98,0.00,CLR,,0.00,WeatherDisplay:10.37,2013-05-23 06:01:00,
2013-05-23 01:06:00,76.6,76.0,29.85,SE,129,6.9,6.9,98,0.00,CLR,,0.00,WeatherDisplay:10.37,2013-05-23 06:06:00,
2013-05-23 01:11:00,76.6,76.0,29.85,ESE,105,4.6,4.6,98,0.00,CLR,,0.00,WeatherDisplay:10.37,2013-05-23 06:11:00,
2013-05-23 01:16:00,76.5,75.9,29.85,SE,136,5.8,5.8,98,0.00,CLR,,0.00,WeatherDisplay:10.37,2013-05-23 06:16:00,
2013-05-23 01:21:00,76.4,75.8,29.85,SE,133,5.8,5.8,98,0.00,CLR,,0.00,WeatherDisplay:10.37,2013-05-23 06:21:00,
2013-05-23 01:26:00,76.4,75.8,29.85,East,96,5.8,5.8,98,0.00,CLR,,0.00,WeatherDisplay:10.37,2013-05-23 06:26:00,
2013-05-23 01:31:00,76.4,75.8,29.85,SE,132,5.8,5.8,98,0.00,CLR,,0.00,WeatherDisplay:10.37,2013-05-23 06:31:00,
2013-05-23 01:36:00,76.4,75.8,29.85,ESE,118,4.6,4.6,98,0.00,CLR,,0.00,WeatherDisplay:10.37,2013-05-23 06:36:00,
2013-05-23 01:41:00,76.4,75.8,29.84,East,96,6.9,6.9,98,0.00,CLR,,0.00,WeatherDisplay:10.37,2013-05-23 06:41:00,
2013-05-23 01:46:00,76.4,75.8,29.84,ESE,120,5.8,5.8,98,0.00,CLR,,0.00,WeatherDisplay:10.37,2013-05-23 06:46:00,
2013-05-23 01:51:00,76.4,75.8,29.84,ESE,105,5.8,5.8,98,0.00,CLR,,0.00,WeatherDisplay:10.37,2013-05-23 06:51:00,
2013-05-23 01:56:00,76.4,75.8,29.84,SE,129,4.6,4.6,98,0.00,CLR,,0.00,WeatherDisplay:10.37,2013-05-23 06:56:00,
2013-05-23 02:01:00,76.3,75.7,29.84,ESE,109,5.8,5.8,98,0.00,CLR,,0.00,WeatherDisplay:10.37,2013-05-23 07:01:00,
2013-05-23 02:06:00,76.3,75.7,29.84,SE,144,5.8,5.8,98,0.00,CLR,,0.00,WeatherDisplay:10.37,2013-05-23 07:06:00,
2013-05-23 02:11:00,76.3,75.7,29.84,SE,136,4.6,4.6,98,0.00,CLR,,0.00,WeatherDisplay:10.37,2013-05-23 07:11:00,
2013-05-23 02:16:00,76.3,75.7,29.84,East,101,4.6,4.6,98,0.00,CLR,,0.00,WeatherDisplay:10.37,2013-05-23 07:16:00,
2013-05-23 02:21:00,76.3,75.7,29.83,SE,129,1.1,1.1,98,0.00,CLR,,0.00,WeatherDisplay:10.37,2013-05-23 07:21:00,
2013-05-23 02:26:00,76.2,75.6,29.83,ESE,111,9.2,9.2,98,0.00,CLR,,0.00,WeatherDisplay:10.37,2013-05-23 07:26:00,
2013-05-23 02:31:00,76.3,76.0,29.83,East,86,5.8,5.8,99,0.00,CLR,,0.00,WeatherDisplay:10.37,2013-05-23 07:31:00,
2013-05-23 02:36:00,76.3,76.0,29.83,ESE,123,4.6,4.6,99,0.00,CLR,,0.00,WeatherDisplay:10.37,2013-05-23 07:36:00,
2013-05-23 02:41:00,76.3,76.0,29.84,ESE,110,3.5,3.5,99,0.00,CLR,,0.00,WeatherDisplay:10.37,2013-05-23 07:41:00,
2013-05-23 02:46:00,76.4,76.1,29.84,SE,139,6.9,6.9,99,0.00,CLR,,0.00,WeatherDisplay:10.37,2013-05-23 07:46:00,
2013-05-23 02:51:00,76.3,76.0,29.84,ESE,123,6.9,6.9,99,0.00,CLR,,0.00,WeatherDisplay:10.37,2013-05-23 07:51:00,
2013-05-23 02:56:00,76.3,76.0,29.84,ESE,113,6.9,6.9,99,0.00,CLR,,0.00,WeatherDisplay:10.37,2013-05-23 07:56:00,
2013-05-23 03:01:00,76.3,76.0,29.84,ESE,122,4.6,4.6,99,0.00,CLR,,0.00,WeatherDisplay:10.37,2013-05-23 08:01:00,
2013-05-23 03:06:00,76.3,76.0,29.84,SE,130,5.8,5.8,99,0.00,CLR,,0.00,WeatherDisplay:10.37,2013-05-23 08:06:00,
2013-05-23 03:11:00,76.4,76.1,29.84,ESE,117,9.2,9.2,99,0.00,CLR,,0.00,WeatherDisplay:10.37,2013-05-23 08:11:00,
2013-05-23 03:16:00,76.5,76.2,29.84,ESE,110,5.8,5.8,99,0.00,CLR,,0.00,WeatherDisplay:10.37,2013-05-23 08:16:00,
2013-05-23 03:21:00,76.5,76.2,29.84,SE,136,5.8,5.8,99,0.00,CLR,,0.00,WeatherDisplay:10.37,2013-05-23 08:21:00,
2013-05-23 03:26:00,76.6,76.3,29.84,SE,135,10.4,10.4,99,0.00,CLR,,0.00,WeatherDisplay:10.37,2013-05-23 08:26:00,
2013-05-23 03:31:00,76.6,76.3,29.84,SE,124,5.8,5.8,99,0.00,CLR,,0.00,WeatherDisplay:10.37,2013-05-23 08:31:00,
2013-05-23 03:36:00,76.5,76.2,29.84,SE,143,9.2,9.2,99,0.00,CLR,,0.00,WeatherDisplay:10.37,2013-05-23 08:36:00,
2013-05-23 03:41:00,76.6,76.3,29.84,ESE,110,5.8,5.8,99,0.00,CLR,,0.00,WeatherDisplay:10.37,2013-05-23 08:41:00,
2013-05-23 03:46:00,76.5,76.2,29.84,ESE,106,13.8,13.8,99,0.00,CLR,,0.00,WeatherDisplay:10.37,2013-05-23 08:46:00,
2013-05-23 03:51:00,76.5,75.9,29.84,ESE,113,5.8,5.8,98,0.00,CLR,,0.00,WeatherDisplay:10.37,2013-05-23 08:51:00,
2013-05-23 03:56:00,76.5,75.9,29.84,ESE,117,10.4,10.4,98,0.00,CLR,,0.00,WeatherDisplay:10.37,2013-05-23 08:56:00,
2013-05-23 04:01:00,76.5,75.9,29.84,SE,124,5.3,5.3,98,0.00,CLR,,0.00,WeatherDisplay:10.37,2013-05-23 09:01:00,
2013-05-23 04:06:00,76.4,75.8,29.84,ESE,117,3.5,3.5,98,0.00,CLR,,0.00,WeatherDisplay:10.37,2013-05-23 09:06:00,
2013-05-23 04:11:00,76.4,75.8,29.84,ENE,61,2.3,2.3,98,0.00,CLR,,0.00,WeatherDisplay:10.37,2013-05-23 09:11:00,
2013-05-23 04:16:00,76.4,75.8,29.84,ESE,103,3.5,3.5,98,0.00,CLR,,0.00,WeatherDisplay:10.37,2013-05-23 09:16:00,
2013-05-23 04:21:00,76.3,75.7,29.84,NE,45,3.5,3.7,98,0.00,CLR,,0.00,WeatherDisplay:10.37,2013-05-23 09:21:00,
2013-05-23 04:26:00,76.2,75.6,29.84,East,80,5.8,5.8,98,0.00,CLR,,0.00,WeatherDisplay:10.37,2013-05-23 09:26:00,
2013-05-23 04:31:00,76.1,75.5,29.85,ESE,106,4.6,4.6,98,0.00,CLR,,0.00,WeatherDisplay:10.37,2013-05-23 09:31:00,
2013-05-23 04:36:00,76.3,75.7,29.85,East,94,5.8,5.8,98,0.00,CLR,,0.00,WeatherDisplay:10.37,2013-05-23 09:36:00,
2013-05-23 04:41:00,76.3,75.7,29.85,East,82,6.9,6.9,98,0.00,CLR,,0.00,WeatherDisplay:10.37,2013-05-23 09:41:00,
2013-05-23 04:46:00,76.4,75.8,29.85,SE,125,4.6,4.6,98,0.00,CLR,,0.00,WeatherDisplay:10.37,2013-05-23 09:46:00,
2013-05-23 04:51:00,76.4,75.8,29.85,SE,142,5.8,5.8,98,0.00,CLR,,0.00,WeatherDisplay:10.37,2013-05-23 09:51:00,
2013-05-23 04:56:00,76.4,75.8,29.85,East,84,5.8,5.8,98,0.00,CLR,,0.00,WeatherDisplay:10.37,2013-05-23 09:56:00,
2013-05-23 05:01:00,76.5,75.9,29.85,East,88,5.8,5.8,98,0.00,CLR,,0.00,WeatherDisplay:10.37,2013-05-23 10:01:00,
2013-05-23 05:06:00,76.5,75.9,29.85,ESE,122,5.8,5.8,98,0.00,CLR,,0.00,WeatherDisplay:10.37,2013-05-23 10:06:00,
2013-05-23 05:11:00,76.5,75.9,29.85,ESE,107,5.8,5.8,98,0.00,CLR,,0.00,WeatherDisplay:10.37,2013-05-23 10:11:00,
2013-05-23 05:16:00,76.5,75.9,29.85,ESE,107,6.9,6.9,98,0.00,CLR,,0.00,WeatherDisplay:10.37,2013-05-23 10:16:00,
2013-05-23 05:21:00,76.6,76.0,29.85,SE,141,4.6,4.6,98,0.00,CLR,,0.00,WeatherDisplay:10.37,2013-05-23 10:21:00,
2013-05-23 05:26:00,76.6,76.0,29.85,ESE,115,5.8,5.8,98,0.00,CLR,,0.00,WeatherDisplay:10.37,2013-05-23 10:26:00,
2013-05-23 05:31:00,76.6,76.0,29.85,ESE,105,6.9,6.9,98,0.00,CLR,,0.00,WeatherDisplay:10.37,2013-05-23 10:31:00,
2013-05-23 05:36:00,76.6,76.0,29.86,SE,140,5.8,5.8,98,0.00,CLR,,0.00,WeatherDisplay:10.37,2013-05-23 10:36:00,
2013-05-23 05:41:00,76.6,76.0,29.86,ESE,113,3.5,3.5,98,0.00,CLR,,0.00,WeatherDisplay:10.37,2013-05-23 10:41:00,
2013-05-23 05:46:00,76.7,76.1,29.86,East,100,5.8,5.8,98,0.00,CLR,,0.00,WeatherDisplay:10.37,2013-05-23 10:46:00,
2013-05-23 05:51:00,76.7,76.1,29.86,ESE,112,5.8,5.8,98,0.00,CLR,,0.00,WeatherDisplay:10.37,2013-05-23 10:51:00,
2013-05-23 05:56:00,76.6,76.0,29.86,ESE,123,10.4,10.4,98,0.00,CLR,,0.00,WeatherDisplay:10.37,2013-05-23 10:56:00,
2013-05-23 06:01:00,76.6,76.0,29.86,East,86,8.1,8.1,98,0.00,CLR,,0.00,WeatherDisplay:10.37,2013-05-23 11:01:00,
2013-05-23 06:06:00,76.5,75.9,29.86,SSE,147,6.9,6.9,98,0.00,CLR,,0.00,WeatherDisplay:10.37,2013-05-23 11:06:00,
2013-05-23 06:11:00,76.5,75.9,29.86,East,96,3.5,3.5,98,0.00,CLR,,0.00,WeatherDisplay:10.37,2013-05-23 11:11:00,
2013-05-23 06:16:00,76.4,75.8,29.87,ESE,108,5.8,5.8,98,0.00,CLR,,0.00,WeatherDisplay:10.37,2013-05-23 11:16:00,
2013-05-23 06:21:00,76.4,75.8,29.87,ESE,116,2.3,2.3,98,0.00,CLR,,0.00,WeatherDisplay:10.37,2013-05-23 11:21:00,
2013-05-23 06:26:00,76.5,75.9,29.87,ESE,122,5.8,5.8,98,0.00,CLR,,0.00,WeatherDisplay:10.37,2013-05-23 11:26:00,
2013-05-23 06:31:00,76.5,75.9,29.87,ESE,108,4.6,4.6,98,0.00,CLR,,0.00,WeatherDisplay:10.37,2013-05-23 11:31:00,
2013-05-23 06:36:00,76.4,75.8,29.87,East,98,6.9,6.9,98,0.00,CLR,,0.00,WeatherDisplay:10.37,2013-05-23 11:36:00,
2013-05-23 06:41:00,76.4,75.8,29.88,East,96,4.6,4.6,98,0.00,CLR,,0.00,WeatherDisplay:10.37,2013-05-23 11:41:00,
2013-05-23 06:46:00,76.3,75.7,29.88,ESE,117,3.5,3.5,98,0.00,CLR,,0.00,WeatherDisplay:10.37,2013-05-23 11:46:00,
2013-05-23 06:51:00,76.3,75.7,29.88,SE,137,4.6,4.6,98,0.00,CLR,,0.00,WeatherDisplay:10.37,2013-05-23 11:51:00,
2013-05-23 06:56:00,76.4,76.1,29.88,SE,129,3.5,3.5,99,0.00,CLR,,0.00,WeatherDisplay:10.37,2013-05-23 11:56:00,
2013-05-23 07:01:00,76.4,76.1,29.88,East,94,5.8,5.8,99,0.00,CLR,,0.00,WeatherDisplay:10.37,2013-05-23 12:01:00,
2013-05-23 07:06:00,76.5,76.2,29.88,East,96,5.8,5.8,99,0.00,CLR,,0.00,WeatherDisplay:10.37,2013-05-23 12:06:00,
2013-05-23 07:11:00,76.5,76.2,29.88,SE,134,9.2,9.2,99,0.00,CLR,,0.00,WeatherDisplay:10.37,2013-05-23 12:11:00,
2013-05-23 07:16:00,76.7,76.4,29.88,SE,136,5.8,5.8,99,0.00,CLR,,0.00,WeatherDisplay:10.37,2013-05-23 12:16:00,
2013-05-23 07:21:00,76.8,76.2,29.89,ESE,104,5.8,5.8,98,0.00,CLR,,0.00,WeatherDisplay:10.37,2013-05-23 12:21:00,
2013-05-23 07:26:00,76.8,76.2,29.89,ESE,105,5.8,5.8,98,0.00,CLR,,0.00,WeatherDisplay:10.37,2013-05-23 12:26:00,
2013-05-23 07:31:00,76.9,76.3,29.89,ESE,122,6.9,6.9,98,0.00,CLR,,0.00,WeatherDisplay:10.37,2013-05-23 12:31:00,
2013-05-23 07:36:00,77.0,76.4,29.89,ESE,110,6.9,6.9,98,0.00,CLR,,0.00,WeatherDisplay:10.37,2013-05-23 12:36:00,
2013-05-23 07:41:00,77.1,76.5,29.89,ESE,109,4.6,4.6,98,0.00,CLR,,0.00,WeatherDisplay:10.37,2013-05-23 12:41:00,
2013-05-23 07:46:00,77.2,76.6,29.89,SE,128,3.5,3.5,98,0.00,CLR,,0.00,WeatherDisplay:10.37,2013-05-23 12:46:00,
2013-05-23 07:51:00,77.3,76.7,29.90,SE,128,5.8,5.8,98,0.00,CLR,,0.00,WeatherDisplay:10.37,2013-05-23 12:51:00,
2013-05-23 07:56:00,77.4,76.8,29.90,SE,139,5.8,5.8,98,0.00,CLR,,0.00,WeatherDisplay:10.37,2013-05-23 12:56:00,
2013-05-23 08:01:00,77.5,76.9,29.90,ESE,122,5.8,5.8,98,0.00,CLR,,0.00,WeatherDisplay:10.37,2013-05-23 13:01:00,
2013-05-23 08:06:00,77.7,77.1,29.90,SSE,149,10.4,10.4,98,0.00,CLR,,0.00,WeatherDisplay:10.37,2013-05-23 13:06:00,
2013-05-23 08:11:00,77.8,76.9,29.90,SE,124,5.8,5.8,97,0.00,CLR,,0.00,WeatherDisplay:10.37,2013-05-23 13:11:00,
2013-05-23 08:16:00,77.9,77.0,29.90,SE,129,10.4,10.4,97,0.00,CLR,,0.00,WeatherDisplay:10.37,2013-05-23 13:16:00,
2013-05-23 08:21:00,77.9,77.0,29.91,ESE,109,9.2,9.2,97,0.00,CLR,,0.00,WeatherDisplay:10.37,2013-05-23 13:21:00,
2013-05-23 08:26:00,78.1,77.2,29.91,ESE,105,8.1,8.1,97,0.00,CLR,,0.00,WeatherDisplay:10.37,2013-05-23 13:26:00,
2013-05-23 08:31:00,78.2,77.0,29.91,SE,124,6.9,6.9,96,0.00,CLR,,0.00,WeatherDisplay:10.37,2013-05-23 13:31:00,
2013-05-23 08:36:00,78.5,77.3,29.91,SE,130,6.9,6.9,96,0.00,CLR,,0.00,WeatherDisplay:10.37,2013-05-23 13:36:00,
2013-05-23 08:41:00,78.8,77.6,29.91,East,83,9.2,9.2,96,0.00,CLR,,0.00,WeatherDisplay:10.37,2013-05-23 13:41:00,
2013-05-23 08:46:00,78.9,77.3,29.91,SSE,152,11.5,11.5,95,0.00,CLR,,0.00,WeatherDisplay:10.37,2013-05-23 13:46:00,
2013-05-23 08:51:00,78.8,77.2,29.92,SE,143,10.4,10.4,95,0.00,CLR,,0.00,WeatherDisplay:10.37,2013-05-23 13:51:00,
2013-05-23 08:56:00,78.9,77.3,29.92,SE,127,10.4,10.4,95,0.00,CLR,,0.00,WeatherDisplay:10.37,2013-05-23 13:56:00,
2013-05-23 09:01:00,78.9,77.3,29.92,ESE,110,11.5,11.5,95,0.00,CLR,,0.00,WeatherDisplay:10.37,2013-05-23 14:01:00,
2013-05-23 09:06:00,79.0,77.1,29.92,South,175,10.4,10.4,94,0.00,CLR,,0.00,WeatherDisplay:10.37,2013-05-23 14:06:00,
2013-05-23 09:11:00,79.1,77.2,29.92,SSE,150,11.5,11.5,94,0.00,CLR,,0.00,WeatherDisplay:10.37,2013-05-23 14:11:00,
2013-05-23 09:16:00,79.3,77.4,29.92,SE,134,10.4,10.4,94,0.00,CLR,,0.00,WeatherDisplay:10.37,2013-05-23 14:16:00,
2013-05-23 09:21:00,79.5,77.3,29.93,ESE,120,12.7,12.7,93,0.00,CLR,,0.00,WeatherDisplay:10.37,2013-05-23 14:21:00,
2013-05-23 09:26:00,79.6,77.4,29.93,SE,139,15.0,15.0,93,0.00,CLR,,0.00,WeatherDisplay:10.37,2013-05-23 14:26:00,
2013-05-23 09:31:00,79.8,77.3,29.93,SE,129,12.7,12.7,92,0.00,CLR,,0.00,WeatherDisplay:10.37,2013-05-23 14:31:00,
2013-05-23 09:36:00,79.7,77.2,29.93,SE,127,6.9,6.9,92,0.00,CLR,,0.00,WeatherDisplay:10.37,2013-05-23 14:36:00,
2013-05-23 09:41:00,79.8,77.3,29.93,ESE,123,5.8,5.8,92,0.00,CLR,,0.00,WeatherDisplay:10.37,2013-05-23 14:41:00,
2013-05-23 09:46:00,79.8,77.3,29.93,SE,137,10.4,10.4,92,0.00,CLR,,0.00,WeatherDisplay:10.37,2013-05-23 14:46:00,
2013-05-23 09:51:00,79.6,77.4,29.93,SE,127,10.4,10.4,93,0.00,CLR,,0.00,WeatherDisplay:10.37,2013-05-23 14:51:00,
2013-05-23 09:56:00,79.5,77.3,29.94,East,101,5.8,5.8,93,0.00,CLR,,0.00,WeatherDisplay:10.37,2013-05-23 14:56:00,
2013-05-23 10:01:00,79.4,77.2,29.94,ESE,108,6.9,6.9,93,0.00,CLR,,0.00,WeatherDisplay:10.37,2013-05-23 15:01:00,
2013-05-23 10:06:00,79.5,77.3,29.94,SE,134,8.1,8.1,93,0.00,CLR,,0.00,WeatherDisplay:10.37,2013-05-23 15:06:00,
2013-05-23 10:11:00,79.5,77.3,29.94,East,89,8.1,8.1,93,0.00,CLR,,0.00,WeatherDisplay:10.37,2013-05-23 15:11:00,
2013-05-23 10:16:00,79.6,77.4,29.94,SSE,165,9.2,9.2,93,0.00,CLR,,0.00,WeatherDisplay:10.37,2013-05-23 15:16:00,
2013-05-23 10:21:00,79.6,77.4,29.94,East,94,9.2,9.2,93,0.00,CLR,,0.00,WeatherDisplay:10.37,2013-05-23 15:21:00,
2013-05-23 10:26:00,79.5,77.3,29.94,East,98,10.4,10.4,93,0.00,CLR,,0.00,WeatherDisplay:10.37,2013-05-23 15:26:00,
2013-05-23 10:31:00,79.6,77.4,29.94,ESE,109,9.2,9.2,93,0.00,CLR,,0.00,WeatherDisplay:10.37,2013-05-23 15:31:00,
2013-05-23 10:36:00,79.9,77.7,29.94,ESE,103,9.2,9.2,93,0.00,CLR,,0.00,WeatherDisplay:10.37,2013-05-23 15:36:00,
2013-05-23 10:41:00,80.3,77.8,29.94,SE,124,6.9,6.9,92,0.00,CLR,,0.00,WeatherDisplay:10.37,2013-05-23 15:41:00,
2013-05-23 10:46:00,80.7,77.8,29.94,East,99,6.9,6.9,91,0.00,CLR,,0.00,WeatherDisplay:10.37,2013-05-23 15:46:00,
2013-05-23 10:51:00,81.0,77.8,29.94,East,95,6.9,6.9,90,0.00,CLR,,0.00,WeatherDisplay:10.37,2013-05-23 15:51:00,
2013-05-23 10:56:00,81.1,77.9,29.94,SSE,149,11.5,11.5,90,0.00,CLR,,0.00,WeatherDisplay:10.37,2013-05-23 15:56:00,
2013-05-23 11:01:00,81.1,77.9,29.94,SSE,150,5.8,5.8,90,0.00,CLR,,0.00,WeatherDisplay:10.37,2013-05-23 16:01:00,
2013-05-23 11:06:00,81.0,77.8,29.94,SE,127,6.9,6.9,90,0.00,CLR,,0.00,WeatherDisplay:10.37,2013-05-23 16:06:00,
2013-05-23 11:11:00,81.0,77.4,29.94,SE,146,5.8,8.8,89,0.00,CLR,,0.00,WeatherDisplay:10.37,2013-05-23 16:11:00,
2013-05-23 11:16:00,80.9,77.7,29.94,ESE,123,5.8,5.8,90,0.00,CLR,,0.00,WeatherDisplay:10.37,2013-05-23 16:16:00,
2013-05-23 11:21:00,81.0,77.8,29.94,SSE,158,5.8,5.8,90,0.00,CLR,,0.00,WeatherDisplay:10.37,2013-05-23 16:21:00,
2013-05-23 11:26:00,81.1,77.9,29.94,East,89,11.5,11.5,90,0.00,CLR,,0.00,WeatherDisplay:10.37,2013-05-23 16:26:00,
2013-05-23 11:31:00,81.1,77.9,29.94,SSE,167,9.2,9.2,90,0.00,CLR,,0.00,WeatherDisplay:10.37,2013-05-23 16:31:00,
2013-05-23 11:36:00,81.4,78.2,29.94,SE,146,9.2,9.2,90,0.00,CLR,,0.00,WeatherDisplay:10.37,2013-05-23 16:36:00,
2013-05-23 11:41:00,81.8,77.9,29.94,SE,138,10.4,10.4,88,0.00,CLR,,0.00,WeatherDisplay:10.37,2013-05-23 16:41:00,
2013-05-23 11:46:00,81.8,77.9,29.94,SE,129,10.4,10.4,88,0.00,CLR,,0.00,WeatherDisplay:10.37,2013-05-23 16:46:00,
2013-05-23 11:51:00,81.7,77.8,29.94,SE,133,13.8,13.8,88,0.00,CLR,,0.00,WeatherDisplay:10.37,2013-05-23 16:51:00,
2013-05-23 11:56:00,81.8,77.9,29.94,SE,145,10.4,10.4,88,0.00,CLR,,0.00,WeatherDisplay:10.37,2013-05-23 16:56:00,
2013-05-23 12:01:00,82.4,78.8,29.94,SE,126,5.8,5.8,89,0.00,CLR,,0.00,WeatherDisplay:10.37,2013-05-23 17:01:00,
2013-05-23 12:06:00,82.6,78.3,29.94,East,87,8.1,8.1,87,0.00,CLR,,0.00,WeatherDisplay:10.37,2013-05-23 17:06:00,
2013-05-23 12:11:00,82.7,78.4,29.94,ESE,109,9.2,9.2,87,0.00,CLR,,0.00,WeatherDisplay:10.37,2013-05-23 17:11:00,
2013-05-23 12:16:00,82.8,78.2,29.94,East,101,18.4,18.4,86,0.00,CLR,,0.00,WeatherDisplay:10.37,2013-05-23 17:16:00,
2013-05-23 12:21:00,82.7,78.4,29.94,East,99,10.4,10.4,87,0.00,CLR,,0.00,WeatherDisplay:10.37,2013-05-23 17:21:00,
2013-05-23 12:26:00,82.5,77.9,29.94,ESE,118,13.8,13.8,86,0.00,CLR,,0.00,WeatherDisplay:10.37,2013-05-23 17:26:00,
2013-05-23 12:31:00,82.8,78.2,29.94,ESE,120,11.5,11.5,86,0.00,CLR,,0.00,WeatherDisplay:10.37,2013-05-23 17:31:00,
2013-05-23 12:36:00,82.7,78.1,29.94,East,98,13.8,13.8,86,0.00,CLR,,0.00,WeatherDisplay:10.37,2013-05-23 17:36:00,
2013-05-23 12:41:00,82.7,78.4,29.94,ESE,111,8.1,8.1,87,0.00,CLR,,0.00,WeatherDisplay:10.37,2013-05-23 17:41:00,
2013-05-23 12:46:00,83.2,78.9,29.93,ESE,110,9.2,9.2,87,0.00,CLR,,0.00,WeatherDisplay:10.37,2013-05-23 17:46:00,
2013-05-23 12:51:00,83.1,78.5,29.94,East,92,15.0,15.0,86,0.00,CLR,,0.00,WeatherDisplay:10.37,2013-05-23 17:51:00,
2013-05-23 12:56:00,82.9,78.3,29.94,ESE,110,12.7,12.7,86,0.00,CLR,,0.00,WeatherDisplay:10.37,2013-05-23 17:56:00,
2013-05-23 13:01:00,82.8,78.5,29.94,ESE,111,10.4,10.4,87,0.00,CLR,,0.00,WeatherDisplay:10.37,2013-05-23 18:01:00,
2013-05-23 13:06:00,82.9,78.3,29.94,ESE,120,10.4,10.4,86,0.00,CLR,,0.00,WeatherDisplay:10.37,2013-05-23 18:06:00,
2013-05-23 13:11:00,83.1,78.5,29.93,ESE,103,13.8,13.8,86,0.00,CLR,,0.00,WeatherDisplay:10.37,2013-05-23 18:11:00,
2013-05-23 13:16:00,83.4,78.4,29.93,SE,129,11.5,11.5,85,0.00,CLR,,0.00,WeatherDisplay:10.37,2013-05-23 18:16:00,
2013-05-23 13:21:00,83.2,78.2,29.93,SE,124,11.5,11.5,85,0.00,CLR,,0.00,WeatherDisplay:10.37,2013-05-23 18:21:00,
2013-05-23 13:26:00,83.0,78.4,29.93,SE,135,6.9,6.9,86,0.00,CLR,,0.00,WeatherDisplay:10.37,2013-05-23 18:26:00,
2013-05-23 13:31:00,82.8,78.2,29.93,SE,137,10.4,10.4,86,0.00,CLR,,0.00,WeatherDisplay:10.37,2013-05-23 18:31:00,
2013-05-23 13:36:00,82.7,78.1,29.93,SE,133,15.0,15.0,86,0.00,CLR,,0.00,WeatherDisplay:10.37,2013-05-23 18:36:00,
2013-05-23 13:41:00,82.8,78.5,29.93,SE,139,12.7,12.7,87,0.00,CLR,,0.00,WeatherDisplay:10.37,2013-05-23 18:41:00,
2013-05-23 13:46:00,82.5,78.2,29.93,SSE,147,11.5,11.5,87,0.00,CLR,,0.00,WeatherDisplay:10.37,2013-05-23 18:46:00,
2013-05-23 13:51:00,82.3,78.4,29.93,East,97,8.1,8.1,88,0.00,CLR,,0.00,WeatherDisplay:10.37,2013-05-23 18:51:00,
2013-05-23 13:56:00,82.7,78.4,29.93,East,92,10.4,10.4,87,0.00,CLR,,0.00,WeatherDisplay:10.37,2013-05-23 18:56:00,
2013-05-23 14:01:00,82.7,78.4,29.93,ESE,116,12.7,12.7,87,0.00,CLR,,0.00,WeatherDisplay:10.37,2013-05-23 19:01:00,
2013-05-23 14:06:00,82.6,78.3,29.93,ESE,104,13.8,13.8,87,0.00,CLR,,0.00,WeatherDisplay:10.37,2013-05-23 19:06:00,
2013-05-23 14:11:00,82.7,78.4,29.93,SE,124,9.2,9.2,87,0.00,CLR,,0.00,WeatherDisplay:10.37,2013-05-23 19:11:00,
2013-05-23 14:16:00,82.9,78.6,29.93,SE,144,9.2,9.2,87,0.00,CLR,,0.00,WeatherDisplay:10.37,2013-05-23 19:16:00,
2013-05-23 14:21:00,83.0,78.4,29.92,SSE,148,13.8,13.8,86,0.00,CLR,,0.00,WeatherDisplay:10.37,2013-05-23 19:21:00,
2013-05-23 14:26:00,83.3,78.7,29.92,East,101,11.5,11.5,86,0.00,CLR,,0.00,WeatherDisplay:10.37,2013-05-23 19:26:00,
2013-05-23 14:31:00,83.3,78.3,29.92,ESE,118,13.8,13.8,85,0.00,CLR,,0.00,WeatherDisplay:10.37,2013-05-23 19:31:00,
2013-05-23 14:36:00,83.0,78.4,29.92,East,94,15.0,15.0,86,0.00,CLR,,0.00,WeatherDisplay:10.37,2013-05-23 19:36:00,
2013-05-23 14:41:00,82.7,78.4,29.92,SE,138,11.5,11.5,87,0.00,CLR,,0.00,WeatherDisplay:10.37,2013-05-23 19:41:00,
2013-05-23 14:46:00,82.6,78.3,29.92,SE,125,15.0,15.0,87,0.00,CLR,,0.00,WeatherDisplay:10.37,2013-05-23 19:46:00,
2013-05-23 14:51:00,83.2,78.6,29.92,East,90,10.4,10.4,86,0.00,CLR,,0.00,WeatherDisplay:10.37,2013-05-23 19:51:00,
2013-05-23 14:56:00,83.3,78.3,29.93,ESE,108,15.0,15.0,85,0.00,CLR,,0.00,WeatherDisplay:10.37,2013-05-23 19:56:00,
2013-05-23 15:01:00,83.1,78.5,29.92,SE,131,15.0,15.0,86,0.00,CLR,,0.00,WeatherDisplay:10.37,2013-05-23 20:01:00,
2013-05-23 15:06:00,82.5,77.5,29.92,ESE,123,15.0,15.0,85,0.00,CLR,,0.00,WeatherDisplay:10.37,2013-05-23 20:06:00,
2013-05-23 15:11:00,82.5,78.2,29.92,East,97,12.7,12.7,87,0.00,CLR,,0.00,WeatherDisplay:10.37,2013-05-23 20:11:00,
2013-05-23 15:16:00,82.8,78.5,29.92,ESE,117,15.0,15.0,87,0.00,CLR,,0.00,WeatherDisplay:10.37,2013-05-23 20:16:00,
2013-05-23 15:21:00,82.7,78.1,29.92,ESE,110,15.0,15.0,86,0.00,CLR,,0.00,WeatherDisplay:10.37,2013-05-23 20:21:00,
2013-05-23 15:26:00,82.7,78.1,29.92,SE,127,12.7,12.7,86,0.00,CLR,,0.00,WeatherDisplay:10.37,2013-05-23 20:26:00,
2013-05-23 15:31:00,82.6,78.0,29.92,SSE,168,8.1,8.1,86,0.00,CLR,,0.00,WeatherDisplay:10.37,2013-05-23 20:31:00,
2013-05-23 15:36:00,82.7,78.1,29.92,SE,124,15.0,15.0,86,0.00,CLR,,0.00,WeatherDisplay:10.37,2013-05-23 20:36:00,
2013-05-23 15:41:00,82.8,78.2,29.91,ESE,117,12.7,12.7,86,0.00,CLR,,0.00,WeatherDisplay:10.37,2013-05-23 20:41:00,
2013-05-23 15:46:00,83.1,78.1,29.91,East,95,15.0,15.0,85,0.00,CLR,,0.00,WeatherDisplay:10.37,2013-05-23 20:46:00,
2013-05-23 15:51:00,83.0,78.0,29.91,SE,129,10.5,10.5,85,0.00,CLR,,0.00,WeatherDisplay:10.37,2013-05-23 20:51:00,
2013-05-23 15:56:00,82.9,78.3,29.91,SSE,150,13.8,13.8,86,0.00,CLR,,0.00,WeatherDisplay:10.37,2013-05-23 20:56:00,
2013-05-23 16:01:00,82.8,78.5,29.91,East,82,10.4,10.4,87,0.00,CLR,,0.00,WeatherDisplay:10.37,2013-05-23 21:01:00,
2013-05-23 16:06:00,82.9,78.3,29.91,ESE,105,10.4,10.4,86,0.00,CLR,,0.00,WeatherDisplay:10.37,2013-05-23 21:06:00,
2013-05-23 16:11:00,83.0,78.4,29.91,East,81,6.9,7.6,86,0.00,CLR,,0.00,WeatherDisplay:10.37,2013-05-23 21:11:00,
2013-05-23 16:16:00,82.6,78.0,29.91,ENE,77,10.4,10.4,86,0.00,CLR,,0.00,WeatherDisplay:10.37,2013-05-23 21:16:00,
2013-05-23 16:21:00,82.6,78.3,29.91,East,99,10.4,10.4,87,0.00,CLR,,0.00,WeatherDisplay:10.37,2013-05-23 21:21:00,
2013-05-23 16:26:00,82.4,77.8,29.91,ESE,108,15.0,15.0,86,0.00,CLR,,0.00,WeatherDisplay:10.37,2013-05-23 21:26:00,
2013-05-23 16:31:00,82.3,78.0,29.91,ESE,110,12.6,12.6,87,0.00,CLR,,0.00,WeatherDisplay:10.37,2013-05-23 21:31:00,
2013-05-23 16:36:00,82.5,77.9,29.91,ESE,108,10.4,10.4,86,0.00,CLR,,0.00,WeatherDisplay:10.37,2013-05-23 21:36:00,
2013-05-23 16:41:00,82.5,77.9,29.90,SE,128,11.5,11.5,86,0.00,CLR,,0.00,WeatherDisplay:10.37,2013-05-23 21:41:00,
2013-05-23 16:46:00,82.3,77.7,29.90,ESE,105,9.2,9.2,86,0.00,CLR,,0.00,WeatherDisplay:10.37,2013-05-23 21:46:00,
2013-05-23 16:51:00,82.2,77.6,29.90,ESE,117,11.5,11.5,86,0.00,CLR,,0.00,WeatherDisplay:10.37,2013-05-23 21:51:00,
2013-05-23 16:56:00,81.8,77.5,29.90,SSE,149,13.8,13.8,87,0.00,CLR,,0.00,WeatherDisplay:10.37,2013-05-23 21:56:00,
2013-05-23 17:01:00,82.0,77.7,29.90,ESE,109,10.4,10.4,87,0.00,CLR,,0.00,WeatherDisplay:10.37,2013-05-23 22:01:00,
2013-05-23 17:06:00,81.7,77.5,29.90,ESE,103,11.5,11.5,87,0.00,CLR,,0.00,WeatherDisplay:10.37,2013-05-23 22:06:00,
2013-05-23 17:11:00,81.4,77.5,29.90,ESE,105,10.4,10.4,88,0.00,CLR,,0.00,WeatherDisplay:10.37,2013-05-23 22:11:00,
2013-05-23 17:16:00,81.4,77.5,29.90,East,93,5.8,6.5,88,0.00,CLR,,0.00,WeatherDisplay:10.37,2013-05-23 22:16:00,
2013-05-23 17:21:00,81.2,77.6,29.89,East,79,9.2,9.2,89,0.00,CLR,,0.00,WeatherDisplay:10.37,2013-05-23 22:21:00,
2013-05-23 17:26:00,81.1,77.5,29.89,East,101,9.2,9.2,89,0.00,CLR,,0.00,WeatherDisplay:10.37,2013-05-23 22:26:00,
2013-05-23 17:31:00,81.4,77.8,29.89,ENE,58,11.5,11.5,89,0.00,CLR,,0.00,WeatherDisplay:10.37,2013-05-23 22:31:00,
2013-05-23 17:36:00,81.5,77.9,29.89,SE,137,5.8,5.8,89,0.00,CLR,,0.00,WeatherDisplay:10.37,2013-05-23 22:36:00,
2013-05-23 17:41:00,81.9,78.0,29.89,East,83,11.5,11.5,88,0.00,CLR,,0.00,WeatherDisplay:10.37,2013-05-23 22:41:00,
2013-05-23 17:46:00,81.4,77.8,29.89,SE,129,9.2,9.2,89,0.00,CLR,,0.00,WeatherDisplay:10.37,2013-05-23 22:46:00,
2013-05-23 17:51:00,81.4,77.5,29.88,ESE,110,10.4,10.4,88,0.00,CLR,,0.00,WeatherDisplay:10.37,2013-05-23 22:51:00,
2013-05-23 17:56:00,81.5,77.9,29.88,ESE,120,11.5,11.5,89,0.00,CLR,,0.00,WeatherDisplay:10.37,2013-05-23 22:56:00,
2013-05-23 18:01:00,81.3,77.7,29.88,ESE,116,15.0,15.0,89,0.00,CLR,,0.00,WeatherDisplay:10.37,2013-05-23 23:01:00,
2013-05-23 18:06:00,80.7,77.2,29.88,SE,126,13.8,13.8,89,0.00,CLR,,0.00,WeatherDisplay:10.37,2013-05-23 23:06:00,
2013-05-23 18:11:00,80.7,77.5,29.87,SE,131,10.4,10.4,90,0.00,CLR,,0.00,WeatherDisplay:10.37,2013-05-23 23:11:00,
2013-05-23 18:16:00,80.6,77.4,29.87,ESE,104,12.7,12.7,90,0.00,CLR,,0.00,WeatherDisplay:10.37,2013-05-23 23:16:00,
2013-05-23 18:21:00,80.5,77.3,29.87,East,96,11.5,11.5,90,0.00,CLR,,0.00,WeatherDisplay:10.37,2013-05-23 23:21:00,
2013-05-23 18:26:00,80.2,77.0,29.87,ESE,108,11.5,11.5,90,0.00,CLR,,0.00,WeatherDisplay:10.37,2013-05-23 23:26:00,
2013-05-23 18:31:00,80.1,76.9,29.86,SSE,148,7.4,7.4,90,0.00,CLR,,0.00,WeatherDisplay:10.37,2013-05-23 23:31:00,
2013-05-23 18:36:00,80.1,77.2,29.86,East,80,13.8,13.8,91,0.00,CLR,,0.00,WeatherDisplay:10.37,2013-05-23 23:36:00,
2013-05-23 18:41:00,79.9,77.0,29.87,SSE,162,9.2,9.2,91,0.00,CLR,,0.00,WeatherDisplay:10.37,2013-05-23 23:41:00,
2013-05-23 18:46:00,79.7,76.8,29.87,ESE,120,12.7,12.7,91,0.00,CLR,,0.00,WeatherDisplay:10.37,2013-05-23 23:46:00,
2013-05-23 18:51:00,79.7,76.8,29.87,East,84,10.4,10.4,91,0.00,CLR,,0.00,WeatherDisplay:10.37,2013-05-23 23:51:00,
2013-05-23 18:56:00,79.6,76.7,29.87,ESE,111,11.5,11.5,91,0.00,CLR,,0.00,WeatherDisplay:10.37,2013-05-23 23:56:00,
2013-05-23 19:01:00,79.5,77.0,29.86,SSE,147,10.4,10.4,92,0.00,CLR,,0.00,WeatherDisplay:10.37,2013-05-24 00:01:00,
2013-05-23 19:06:00,79.5,77.0,29.87,SE,130,9.2,9.2,92,0.00,CLR,,0.00,WeatherDisplay:10.37,2013-05-24 00:06:00,
2013-05-23 19:11:00,79.3,76.4,29.87,East,101,9.2,9.2,91,0.00,CLR,,0.00,WeatherDisplay:10.37,2013-05-24 00:11:00,
2013-05-23 19:16:00,79.2,76.7,29.87,ESE,108,12.7,12.7,92,0.00,CLR,,0.00,WeatherDisplay:10.37,2013-05-24 00:16:00,
2013-05-23 19:21:00,79.1,76.6,29.87,East,86,10.4,10.4,92,0.00,CLR,,0.00,WeatherDisplay:10.37,2013-05-24 00:21:00,
2013-05-23 19:26:00,78.9,76.4,29.87,SE,139,6.9,6.9,92,0.00,CLR,,0.00,WeatherDisplay:10.37,2013-05-24 00:26:00,
2013-05-23 19:31:00,78.9,76.4,29.87,ESE,115,5.8,5.8,92,0.00,CLR,,0.00,WeatherDisplay:10.37,2013-05-24 00:31:00,
2013-05-23 19:36:00,78.9,76.4,29.87,ENE,78,9.2,9.2,92,0.00,CLR,,0.00,WeatherDisplay:10.37,2013-05-24 00:36:00,
2013-05-23 19:41:00,78.8,76.3,29.87,ESE,115,12.7,12.7,92,0.00,CLR,,0.00,WeatherDisplay:10.37,2013-05-24 00:41:00,
2013-05-23 19:46:00,78.8,76.3,29.87,ESE,110,10.4,10.4,92,0.00,CLR,,0.00,WeatherDisplay:10.37,2013-05-24 00:46:00,
2013-05-23 19:51:00,78.7,76.5,29.88,ENE,70,5.8,5.8,93,0.00,CLR,,0.00,WeatherDisplay:10.37,2013-05-24 00:51:00,
2013-05-23 19:56:00,78.6,76.4,29.88,East,85,10.4,10.4,93,0.00,CLR,,0.00,WeatherDisplay:10.37,2013-05-24 00:56:00,
2013-05-23 20:01:00,78.6,76.4,29.87,ESE,117,9.2,9.2,93,0.00,CLR,,0.00,WeatherDisplay:10.37,2013-05-24 01:01:00,
2013-05-23 20:06:00,78.5,76.3,29.88,ESE,120,15.0,15.0,93,0.00,CLR,,0.00,WeatherDisplay:10.37,2013-05-24 01:06:00,
2013-05-23 20:11:00,78.4,76.5,29.87,SE,142,11.5,11.5,94,0.00,CLR,,0.00,WeatherDisplay:10.37,2013-05-24 01:11:00,
2013-05-23 20:16:00,78.3,76.4,29.87,SE,131,9.4,9.4,94,0.00,CLR,,0.00,WeatherDisplay:10.37,2013-05-24 01:16:00,
2013-05-23 20:21:00,78.3,76.4,29.87,East,94,5.8,5.8,94,0.00,CLR,,0.00,WeatherDisplay:10.37,2013-05-24 01:21:00,
2013-05-23 20:26:00,78.3,76.4,29.87,SSE,154,15.0,15.0,94,0.00,CLR,,0.00,WeatherDisplay:10.37,2013-05-24 01:26:00,
2013-05-23 20:31:00,78.3,76.4,29.87,SE,141,11.5,11.5,94,0.00,CLR,,0.00,WeatherDisplay:10.37,2013-05-24 01:31:00,
2013-05-23 20:36:00,78.1,76.6,29.87,ESE,117,9.2,9.2,95,0.00,CLR,,0.00,WeatherDisplay:10.37,2013-05-24 01:36:00,
2013-05-23 20:41:00,78.0,76.5,29.87,SE,124,11.5,11.5,95,0.00,CLR,,0.00,WeatherDisplay:10.37,2013-05-24 01:41:00,
2013-05-23 20:46:00,77.9,76.4,29.87,ESE,110,16.1,16.1,95,0.00,CLR,,0.00,WeatherDisplay:10.37,2013-05-24 01:46:00,
2013-05-23 20:51:00,77.9,76.4,29.88,East,88,6.9,6.9,95,0.00,CLR,,0.00,WeatherDisplay:10.37,2013-05-24 01:51:00,
2013-05-23 20:56:00,77.8,76.3,29.88,East,94,9.2,9.2,95,0.00,CLR,,0.00,WeatherDisplay:10.37,2013-05-24 01:56:00,
2013-05-23 21:01:00,77.7,76.2,29.88,ESE,111,13.8,13.8,95,0.00,CLR,,0.00,WeatherDisplay:10.37,2013-05-24 02:01:00,
2013-05-23 21:06:00,77.7,76.2,29.88,ESE,114,6.9,6.9,95,0.00,CLR,,0.00,WeatherDisplay:10.37,2013-05-24 02:06:00,
2013-05-23 21:11:00,77.7,76.2,29.88,SE,127,9.2,9.2,95,0.00,CLR,,0.00,WeatherDisplay:10.37,2013-05-24 02:11:00,
2013-05-23 21:16:00,77.6,76.1,29.89,ESE,113,9.2,9.2,95,0.00,CLR,,0.00,WeatherDisplay:10.37,2013-05-24 02:16:00,
2013-05-23 21:21:00,77.6,76.1,29.89,ESE,104,6.9,6.9,95,0.00,CLR,,0.00,WeatherDisplay:10.37,2013-05-24 02:21:00,
2013-05-23 21:26:00,77.7,76.5,29.89,ESE,109,7.4,7.4,96,0.00,CLR,,0.00,WeatherDisplay:10.37,2013-05-24 02:26:00,
2013-05-23 21:31:00,77.7,76.5,29.90,East,96,10.4,10.4,96,0.00,CLR,,0.00,WeatherDisplay:10.37,2013-05-24 02:31:00,
2013-05-23 21:36:00,77.8,76.6,29.90,East,100,12.7,12.7,96,0.00,CLR,,0.00,WeatherDisplay:10.37,2013-05-24 02:36:00,
2013-05-23 21:41:00,77.7,76.5,29.91,ESE,113,10.4,10.4,96,0.00,CLR,,0.00,WeatherDisplay:10.37,2013-05-24 02:41:00,
2013-05-23 21:46:00,77.7,76.5,29.91,ESE,122,5.8,5.8,96,0.00,CLR,,0.00,WeatherDisplay:10.37,2013-05-24 02:46:00,
2013-05-23 21:51:00,77.7,76.5,29.92,ESE,116,6.9,7.4,96,0.00,CLR,,0.00,WeatherDisplay:10.37,2013-05-24 02:51:00,
2013-05-23 21:56:00,77.7,76.5,29.92,SE,129,6.9,6.9,96,0.00,CLR,,0.00,WeatherDisplay:10.37,2013-05-24 02:56:00,
2013-05-23 22:01:00,77.8,76.6,29.93,ESE,105,6.9,6.9,96,0.00,CLR,,0.00,WeatherDisplay:10.37,2013-05-24 03:01:00,
2013-05-23 22:06:00,77.8,76.6,29.93,ESE,113,5.8,5.8,96,0.00,CLR,,0.00,WeatherDisplay:10.37,2013-05-24 03:06:00,
2013-05-23 22:11:00,77.8,76.6,29.93,SE,130,9.2,9.2,96,0.00,CLR,,0.00,WeatherDisplay:10.37,2013-05-24 03:11:00,
2013-05-23 22:16:00,77.8,76.6,29.93,SSE,162,5.8,5.8,96,0.00,CLR,,0.00,WeatherDisplay:10.37,2013-05-24 03:16:00,
2013-05-23 22:21:00,77.8,76.6,29.93,East,97,6.9,6.9,96,0.00,CLR,,0.00,WeatherDisplay:10.37,2013-05-24 03:21:00,
2013-05-23 22:26:00,77.7,76.5,29.94,SE,124,6.9,6.9,96,0.00,CLR,,0.00,WeatherDisplay:10.37,2013-05-24 03:26:00,
2013-05-23 22:31:00,77.7,76.5,29.94,SE,137,7.4,7.4,96,0.00,CLR,,0.00,WeatherDisplay:10.37,2013-05-24 03:31:00,
2013-05-23 22:36:00,77.6,76.4,29.94,ESE,110,9.2,9.2,96,0.00,CLR,,0.00,WeatherDisplay:10.37,2013-05-24 03:36:00,
2013-05-23 22:41:00,77.6,76.4,29.94,East,98,4.6,4.6,96,0.00,CLR,,0.00,WeatherDisplay:10.37,2013-05-24 03:41:00,
2013-05-23 22:46:00,77.5,76.6,29.95,ESE,117,5.8,5.8,97,0.00,CLR,,0.00,WeatherDisplay:10.37,2013-05-24 03:46:00,
2013-05-23 22:51:00,77.4,76.5,29.96,ESE,109,5.8,5.8,97,0.00,CLR,,0.00,WeatherDisplay:10.37,2013-05-24 03:51:00,
2013-05-23 22:56:00,77.4,76.5,29.96,ESE,103,5.8,5.8,97,0.00,CLR,,0.00,WeatherDisplay:10.37,2013-05-24 03:56:00,
2013-05-23 23:01:00,77.4,76.5,29.96,ENE,70,3.5,3.5,97,0.00,CLR,,0.00,WeatherDisplay:10.37,2013-05-24 04:01:00,
2013-05-23 23:06:00,77.3,76.4,29.96,ESE,103,9.2,9.2,97,0.00,CLR,,0.00,WeatherDisplay:10.37,2013-05-24 04:06:00,
2013-05-23 23:11:00,77.3,76.4,29.97,East,95,5.8,5.8,97,0.00,CLR,,0.00,WeatherDisplay:10.37,2013-05-24 04:11:00,
2013-05-23 23:16:00,77.3,76.4,29.97,ESE,117,9.2,9.2,97,0.00,CLR,,0.00,WeatherDisplay:10.37,2013-05-24 04:16:00,
2013-05-23 23:21:00,77.4,76.5,29.97,ESE,120,5.8,5.8,97,0.00,CLR,,0.00,WeatherDisplay:10.37,2013-05-24 04:21:00,
2013-05-23 23:26:00,77.4,76.5,29.97,East,101,6.9,6.9,97,0.00,CLR,,0.00,WeatherDisplay:10.37,2013-05-24 04:26:00,
2013-05-23 23:31:00,77.5,76.6,29.97,ENE,75,4.6,4.6,97,0.00,CLR,,0.00,WeatherDisplay:10.37,2013-05-24 04:31:00,
2013-05-23 23:36:00,77.5,76.6,29.97,ENE,77,4.6,4.6,97,0.00,CLR,,0.00,WeatherDisplay:10.37,2013-05-24 04:36:00,
2013-05-23 23:41:00,77.5,76.6,29.97,ESE,118,5.8,5.8,97,0.00,CLR,,0.00,WeatherDisplay:10.37,2013-05-24 04:41:00,
2013-05-23 23:46:00,77.6,77.0,29.97,East,86,10.4,10.4,98,0.00,CLR,,0.00,WeatherDisplay:10.37,2013-05-24 04:46:00,
2013-05-23 23:51:00,77.6,77.0,29.97,East,84,5.8,5.8,98,0.00,CLR,,0.00,WeatherDisplay:10.37,2013-05-24 04:51:00,
2013-05-23 23:56:00,77.5,76.9,29.97,East,96,10.4,10.4,98,0.00,CLR,,0.00,WeatherDisplay:10.37,2013-05-24 04:56:00,